Time;durP1;ratioP1;P1;durP2;ratioP2;P2;SDS_P1;SDS_P2;PMS_P1;PMS_P2;Temp;Humidity;BMP_temperature;BMP_pressure;BME280_temperature;BME280_humidity;BME280_pressure;Samples;Min_cycle;Max_cycle;Signal;HPM_P1;HPM_P2
2022/10/21 00:00:55;;;;;;;2.65;2.08;;;;;;;17.31;63.30;100796.84;6344754;22;20045;-83
2022/10/21 00:03:22;;;;;;;3.13;2.20;;;;;;;17.31;63.24;100790.75;6313790;22;20086;-82
2022/10/21 00:05:50;;;;;;;4.00;2.50;;;;;;;17.32;63.32;100801.16;6341752;22;19999;-84
2022/10/21 00:08:15;;;;;;;4.25;2.30;;;;;;;17.32;63.02;100792.50;6341108;22;20007;-83
2022/10/21 00:10:41;;;;;;;3.75;2.63;;;;;;;17.31;63.32;100785.56;6288704;22;20057;-83
2022/10/21 00:13:06;;;;;;;3.78;2.13;;;;;;;17.32;63.27;100792.50;6314631;22;20326;-82
2022/10/21 00:15:32;;;;;;;3.30;2.30;;;;;;;17.32;63.43;100782.09;6314605;22;19999;-82
2022/10/21 00:17:57;;;;;;;3.85;2.22;;;;;;;17.30;63.04;100776.91;6313796;22;20021;-83
2022/10/21 00:20:22;;;;;;;3.75;2.10;;;;;;;17.31;63.17;100777.75;6315291;22;20014;-83
2022/10/21 00:22:48;;;;;;;4.18;2.40;;;;;;;17.31;63.30;100786.44;6289963;22;20373;-83
2022/10/21 00:25:13;;;;;;;2.67;2.15;;;;;;;17.33;63.09;100792.47;6289179;22;20021;-83
2022/10/21 00:27:39;;;;;;;3.53;2.38;;;;;;;17.31;63.34;100788.16;6289456;22;20037;-82
2022/10/21 00:30:06;;;;;;;3.28;2.22;;;;;;;17.31;63.17;100788.16;6290633;22;20039;-83
2022/10/21 00:32:41;;;;;;;3.42;2.33;;;;;;;17.30;63.10;100789.91;6326623;22;19999;-87
2022/10/21 00:35:06;;;;;;;2.88;2.10;;;;;;;17.31;63.24;100790.75;6336419;22;20003;-87
2022/10/21 00:44:20;;;;;;;3.72;2.22;;;;;;;17.31;63.23;100793.38;6321204;22;20019;-90
2022/10/21 00:50:47;;;;;;;2.80;1.92;;;;;;;17.31;63.09;100794.25;6367927;22;20049;-87
2022/10/21 01:03:32;;;;;;;3.15;2.05;;;;;;;17.31;63.16;100778.66;6328864;22;20029;-88
2022/10/21 02:44:44;;;;;;;3.00;1.92;;;;;;;17.27;62.81;100691.13;6365503;22;20030;-82
2022/10/21 02:47:10;;;;;;;2.53;1.60;;;;;;;17.26;63.23;100681.56;6327151;22;20345;-83
2022/10/21 02:49:37;;;;;;;2.78;1.80;;;;;;;17.26;63.13;100676.38;6352370;22;20067;-82
2022/10/21 02:52:02;;;;;;;2.78;1.75;;;;;;;17.26;63.19;100674.63;6384707;22;20002;-82
2022/10/21 02:54:28;;;;;;;3.75;1.80;;;;;;;17.26;63.24;100678.97;6359579;22;20021;-82
2022/10/21 02:56:53;;;;;;;2.53;1.80;;;;;;;17.25;63.21;100678.13;6384896;22;20029;-83
2022/10/21 02:59:18;;;;;;;2.20;1.73;;;;;;;17.25;63.28;100678.13;6332972;22;20018;-82
2022/10/21 03:02:03;;;;;;;2.42;1.75;;;;;;;17.23;63.09;100672.06;6357767;22;20022;-82
2022/10/21 03:04:28;;;;;;;2.08;1.75;;;;;;;17.24;62.81;100673.78;6385137;22;20006;-82
2022/10/21 03:06:53;;;;;;;4.05;1.80;;;;;;;17.24;63.10;100673.78;6327728;22;20012;-82
2022/10/21 03:09:19;;;;;;;2.53;1.85;;;;;;;17.26;63.28;100679.84;6379056;22;20104;-83
2022/10/21 03:11:44;;;;;;;3.22;1.75;;;;;;;17.25;62.97;100674.66;6352792;22;20032;-82
2022/10/21 03:14:10;;;;;;;2.65;1.80;;;;;;;17.24;63.39;100671.19;6325566;22;20010;-82
2022/10/21 03:16:35;;;;;;;2.30;1.80;;;;;;;17.24;63.09;100673.78;6325548;22;20037;-82
2022/10/21 03:19:00;;;;;;;2.28;1.70;;;;;;;17.24;63.18;100675.53;6353126;22;20083;-81
2022/10/21 03:21:26;;;;;;;3.17;1.60;;;;;;;17.26;62.89;100673.78;6326181;22;20041;-82
2022/10/21 03:23:51;;;;;;;2.58;1.75;;;;;;;17.24;63.07;100668.59;6351085;22;20002;-82
2022/10/21 03:26:16;;;;;;;2.53;1.67;;;;;;;17.24;62.88;100668.59;6381069;22;20021;-82
2022/10/21 03:28:42;;;;;;;2.50;1.70;;;;;;;17.24;62.90;100675.53;6325887;22;20018;-82
2022/10/21 03:31:07;;;;;;;2.25;1.60;;;;;;;17.25;63.07;100677.28;6325998;22;20010;-82
2022/10/21 03:33:34;;;;;;;2.33;1.60;;;;;;;17.24;63.07;100673.78;6350627;22;20372;-81
2022/10/21 03:35:59;;;;;;;2.17;1.70;;;;;;;17.22;62.91;100664.28;6324371;22;20071;-82
2022/10/21 03:38:25;;;;;;;2.75;1.80;;;;;;;17.24;62.97;100673.78;6350874;22;19994;-82
2022/10/21 03:40:50;;;;;;;2.40;1.80;;;;;;;17.24;63.16;100665.97;6350363;22;20010;-82
2022/10/21 03:43:16;;;;;;;2.63;1.60;;;;;;;17.24;62.94;100658.19;6348000;22;20390;-80
2022/10/21 03:45:41;;;;;;;2.03;1.63;;;;;;;17.24;63.13;100652.13;6291082;22;20007;-82
2022/10/21 03:48:07;;;;;;;2.53;1.60;;;;;;;17.25;63.07;100651.25;6294422;22;20079;-82
2022/10/21 03:50:33;;;;;;;2.53;1.70;;;;;;;17.24;62.95;100649.53;6268601;22;20011;-82
2022/10/21 03:52:58;;;;;;;2.97;1.67;;;;;;;17.24;62.98;100645.19;6345819;22;19999;-83
2022/10/21 03:55:24;;;;;;;2.22;1.70;;;;;;;17.24;63.18;100644.31;6346290;22;20003;-81
2022/10/21 03:57:51;;;;;;;2.45;1.55;;;;;;;17.23;63.11;100646.06;6317909;22;20014;-83
2022/10/21 04:00:39;;;;;;;2.95;1.80;;;;;;;17.24;62.97;100641.72;6325003;22;20007;-83
2022/10/21 04:03:06;;;;;;;2.35;1.55;;;;;;;17.24;62.94;100641.72;6347513;22;20068;-81
2022/10/21 04:05:31;;;;;;;5.93;1.90;;;;;;;17.24;63.14;100641.72;6324695;22;20010;-84
2022/10/21 04:07:56;;;;;;;4.18;1.80;;;;;;;17.23;63.26;100635.66;6325176;22;20007;-81
2022/10/21 04:10:22;;;;;;;2.58;1.55;;;;;;;17.25;63.08;100635.66;6299320;22;20334;-82
2022/10/21 04:12:47;;;;;;;3.13;1.60;;;;;;;17.25;63.29;100638.25;6352710;22;20015;-82
2022/10/21 04:15:13;;;;;;;2.75;1.80;;;;;;;17.24;63.31;100636.53;6324888;22;20040;-82
2022/10/21 04:17:39;;;;;;;1.90;1.70;;;;;;;17.23;62.80;100627.00;6323542;22;20018;-83
2022/10/21 04:20:05;;;;;;;2.05;1.73;;;;;;;17.22;63.09;100628.75;6298753;22;20509;-83
2022/10/21 04:22:31;;;;;;;1.88;1.67;;;;;;;17.24;63.06;100626.97;6324631;22;20081;-83
2022/10/21 04:24:56;;;;;;;3.10;1.85;;;;;;;17.24;63.02;100623.53;6298995;22;20095;-82
2022/10/21 04:27:21;;;;;;;2.38;1.60;;;;;;;17.22;62.91;100628.75;6323176;22;20015;-82
2022/10/21 04:29:47;;;;;;;2.38;1.80;;;;;;;17.22;63.17;100636.56;6297347;22;20089;-82
2022/10/21 04:32:12;;;;;;;2.28;1.63;;;;;;;17.24;63.31;100644.31;6322077;22;20007;-82
2022/10/21 04:34:38;;;;;;;2.35;1.42;;;;;;;17.24;63.09;100652.13;6320468;22;20003;-83
2022/10/21 04:37:03;;;;;;;2.08;1.70;;;;;;;17.23;63.08;100651.28;6322000;22;20011;-82
2022/10/21 04:39:28;;;;;;;1.67;1.30;;;;;;;17.22;63.07;100652.16;6295232;22;20015;-83
2022/10/21 04:41:54;;;;;;;2.08;1.80;;;;;;;17.21;63.03;100645.22;6320177;22;20418;-82
2022/10/21 04:44:21;;;;;;;1.50;1.40;;;;;;;17.22;62.99;100651.28;6320393;22;20022;-82
2022/10/21 04:46:46;;;;;;;2.22;1.70;;;;;;;17.21;63.18;100655.63;6348277;22;20046;-86
2022/10/21 04:49:13;;;;;;;2.20;1.60;;;;;;;17.22;62.95;100662.56;6320235;22;20010;-83
2022/10/21 04:51:38;;;;;;;2.40;1.52;;;;;;;17.22;63.49;100653.88;6320437;22;20460;-82
2022/10/21 04:54:04;;;;;;;2.17;1.30;;;;;;;17.20;63.02;100645.22;6322206;22;20010;-82
2022/10/21 04:56:29;;;;;;;1.70;1.33;;;;;;;17.21;63.35;100650.44;6321207;22;20374;-82
2022/10/21 04:58:56;;;;;;;1.77;1.30;;;;;;;17.21;62.87;100640.03;6320535;22;20025;-83
2022/10/21 05:01:21;;;;;;;2.42;1.55;;;;;;;17.20;63.15;100640.91;6320672;22;20015;-84
2022/10/21 05:03:47;;;;;;;2.05;1.40;;;;;;;17.20;63.04;100640.03;6320655;22;20006;-83
2022/10/21 05:06:12;;;;;;;1.70;1.50;;;;;;;17.21;63.10;100640.03;6321211;22;20003;-82
2022/10/21 05:08:37;;;;;;;3.88;1.77;;;;;;;17.20;63.09;100635.72;6299293;22;20011;-80
2022/10/21 05:11:13;;;;;;;2.38;1.60;;;;;;;17.20;63.25;100625.31;6346842;22;20074;-83
2022/10/21 05:13:39;;;;;;;2.42;1.70;;;;;;;17.20;62.81;100627.91;6325617;22;20009;-83
2022/10/21 05:16:08;;;;;;;2.47;1.60;;;;;;;17.20;63.04;100630.50;6326820;22;20007;-82
2022/10/21 05:18:33;;;;;;;2.00;1.65;;;;;;;17.20;63.10;100634.84;6321980;22;20503;-81
2022/10/21 05:20:59;;;;;;;1.70;1.40;;;;;;;17.20;63.29;100640.03;6319226;22;19994;-84
2022/10/21 05:23:27;;;;;;;2.10;1.50;;;;;;;17.19;63.06;100646.97;6351505;22;20003;-83
2022/10/21 05:25:54;;;;;;;3.30;1.77;;;;;;;17.20;63.27;100656.53;6328262;22;20052;-83
2022/10/21 05:37:46;;;;;;;17.85;5.82;;;;;;;17.30;63.20;100654.66;6206253;23;20032;-83
2022/10/21 05:40:12;;;;;;;19.03;5.37;;;;;;;17.31;63.39;100659.00;6206460;23;20020;-83
2022/10/21 05:42:37;;;;;;;15.10;4.80;;;;;;;17.34;63.36;100653.75;6194863;23;20079;-81
2022/10/21 05:45:03;;;;;;;17.25;5.03;;;;;;;17.34;63.27;100643.34;6187698;23;20013;-82
2022/10/21 05:47:28;;;;;;;10.82;4.43;;;;;;;17.38;63.36;100645.03;6189414;23;20017;-82
2022/10/21 05:49:54;;;;;;;11.20;4.20;;;;;;;17.40;63.67;100650.22;6193065;23;20024;-84
2022/10/21 05:52:26;;;;;;;22.70;7.78;;;;;;;17.47;63.77;100647.53;6164147;23;20016;-82
2022/10/21 05:54:52;;;;;;;24.77;7.82;;;;;;;17.44;63.20;100650.19;6187607;23;20009;-82
2022/10/21 05:57:17;;;;;;;24.50;6.70;;;;;;;17.42;63.70;100658.84;6163689;23;20012;-84
2022/10/21 05:59:43;;;;;;;20.65;6.90;;;;;;;17.39;63.48;100661.50;6140191;23;20009;-84
2022/10/21 06:02:09;;;;;;;19.83;6.05;;;;;;;17.37;63.85;100651.09;6164123;23;20029;-84
2022/10/21 06:04:34;;;;;;;12.00;5.30;;;;;;;17.36;64.02;100648.53;6138162;23;20020;-83
2022/10/21 06:07:00;;;;;;;14.05;5.38;;;;;;;17.36;63.80;100648.53;6168631;22;20045;-86
2022/10/21 06:09:26;;;;;;;16.15;5.25;;;;;;;17.34;63.84;100653.75;6229751;22;20018;-84
2022/10/21 06:11:51;;;;;;;14.40;5.45;;;;;;;17.34;63.77;100643.34;6254818;22;19995;-84
2022/10/21 06:14:18;;;;;;;14.43;5.03;;;;;;;17.33;63.77;100643.34;6254510;22;20373;-84
2022/10/21 06:16:44;;;;;;;11.70;4.70;;;;;;;17.34;63.86;100648.56;6257211;22;20065;-83
2022/10/21 06:19:09;;;;;;;12.07;4.45;;;;;;;17.33;63.85;100644.22;6231104;22;20012;-84
2022/10/21 06:21:34;;;;;;;12.40;4.70;;;;;;;17.33;63.70;100644.22;6229298;22;20000;-84
2022/10/21 06:24:00;;;;;;;10.15;4.43;;;;;;;17.32;63.65;100645.09;6255269;22;20193;-84
2022/10/21 06:26:25;;;;;;;11.70;4.30;;;;;;;17.34;63.87;100642.50;6227196;22;20049;-83
2022/10/21 06:28:50;;;;;;;9.45;4.40;;;;;;;17.33;63.56;100644.22;6228632;22;20014;-82
2022/10/21 06:31:19;;;;;;;7.25;3.70;;;;;;;17.34;63.86;100648.56;6227983;22;20016;-83
2022/10/21 06:33:44;;;;;;;8.02;4.05;;;;;;;17.34;63.69;100650.31;6305313;22;20015;-83
2022/10/21 06:36:10;;;;;;;7.88;3.75;;;;;;;17.35;63.72;100649.41;6259068;22;20085;-83
2022/10/21 06:38:36;;;;;;;9.32;3.92;;;;;;;17.34;63.57;100651.16;6283653;22;20007;-84
2022/10/21 06:41:05;;;;;;;7.75;3.58;;;;;;;17.36;63.45;100659.81;6259673;22;20007;-84
2022/10/21 06:43:30;;;;;;;9.05;4.07;;;;;;;17.37;63.49;100663.25;6283101;22;20003;-82
2022/10/21 06:46:04;;;;;;;8.98;4.00;;;;;;;17.37;63.67;100663.25;6283144;22;20381;-86
2022/10/21 06:48:30;;;;;;;9.60;3.85;;;;;;;17.38;63.55;100670.19;6283057;22;19999;-83
2022/10/21 06:51:05;;;;;;;11.68;3.75;;;;;;;17.37;63.42;100669.31;6281628;22;20004;-83
2022/10/21 06:53:31;;;;;;;8.20;3.30;;;;;;;17.39;63.30;100661.50;6281422;22;19999;-83
2022/10/21 06:56:16;;;;;;;7.68;3.20;;;;;;;17.40;63.38;100661.50;6230390;22;20011;-83
2022/10/21 06:58:46;;;;;;;8.27;3.55;;;;;;;17.42;63.41;100653.66;6283699;22;20003;-84
2022/10/21 07:01:17;;;;;;;7.07;3.33;;;;;;;17.42;63.44;100651.94;6309586;22;20088;-84
2022/10/21 07:03:42;;;;;;;12.73;3.20;;;;;;;17.45;63.49;100661.44;6281627;22;20011;-83
2022/10/21 07:06:08;;;;;;;7.57;3.28;;;;;;;17.45;63.44;100656.22;6255696;22;20050;-85
2022/10/21 07:08:34;;;;;;;5.93;3.10;;;;;;;17.48;63.38;100656.19;6281096;22;20003;-83
2022/10/21 07:11:00;;;;;;;7.38;3.20;;;;;;;17.48;63.24;100657.06;6255670;22;20007;-84
2022/10/21 07:13:25;;;;;;;8.40;3.35;;;;;;;17.50;63.62;100661.38;6255387;22;20450;-83
2022/10/21 07:16:03;;;;;;;6.30;3.15;;;;;;;17.50;63.51;100658.78;6281074;22;20004;-84
2022/10/21 07:18:29;;;;;;;6.60;3.08;;;;;;;17.48;63.54;100661.38;6283326;22;20435;-84
2022/10/21 07:21:01;;;;;;;7.38;3.00;;;;;;;17.50;63.37;100658.78;6255518;22;20009;-84
2022/10/21 07:23:26;;;;;;;6.78;2.85;;;;;;;17.50;63.31;100650.97;6280570;22;19999;-84
2022/10/21 07:25:52;;;;;;;6.38;3.38;;;;;;;17.48;63.56;100657.06;6254997;22;20081;-84
2022/10/21 07:28:17;;;;;;;5.57;3.05;;;;;;;17.50;63.43;100666.56;6255510;22;20003;-84
2022/10/21 07:30:43;;;;;;;6.07;3.22;;;;;;;17.49;63.65;100657.91;6308005;22;20003;-84
2022/10/21 07:33:09;;;;;;;7.78;2.97;;;;;;;17.51;63.38;100665.69;6280219;22;20011;-84
2022/10/21 07:35:35;;;;;;;7.60;2.80;;;;;;;17.50;63.40;100666.56;6280784;22;20062;-83
2022/10/21 07:38:01;;;;;;;5.45;2.78;;;;;;;17.51;63.50;100676.09;6254893;22;20014;-84
2022/10/21 07:40:29;;;;;;;5.80;2.80;;;;;;;17.50;63.37;100683.03;6280600;22;20046;-84
2022/10/21 07:42:56;;;;;;;5.10;2.75;;;;;;;17.51;63.24;100696.91;6255719;22;20003;-83
2022/10/21 07:45:21;;;;;;;5.55;2.90;;;;;;;17.50;63.24;100701.25;6280734;22;20003;-84
2022/10/21 07:47:46;;;;;;;6.95;3.17;;;;;;;17.53;63.26;100701.25;6280754;22;20014;-79
2022/10/21 07:50:13;;;;;;;5.65;3.00;;;;;;;17.54;63.26;100705.53;6280769;22;20007;-78
2022/10/21 07:52:44;;;;;;;8.10;3.05;;;;;;;17.56;63.16;100706.41;6280649;22;20498;-78
2022/10/21 07:55:14;;;;;;;8.00;3.38;;;;;;;17.58;63.35;100704.63;6281984;22;20003;-78
2022/10/21 07:57:41;;;;;;;6.32;2.85;;;;;;;17.59;63.60;100697.69;6280488;22;20007;-79
2022/10/21 08:00:08;;;;;;;9.27;2.83;;;;;;;17.60;63.49;100691.63;6280329;22;20337;-79
2022/10/21 08:02:34;;;;;;;5.68;3.08;;;;;;;17.61;63.00;100694.19;6280431;22;20011;-79
2022/10/21 08:04:59;;;;;;;10.73;3.10;;;;;;;17.61;63.16;100691.56;6280431;22;20015;-79
2022/10/21 08:07:25;;;;;;;6.32;2.80;;;;;;;17.63;63.04;100692.44;6254817;22;20404;-84
2022/10/21 08:09:51;;;;;;;6.88;3.00;;;;;;;17.65;62.97;100700.22;6280396;22;20129;-79
2022/10/21 08:12:16;;;;;;;6.32;3.08;;;;;;;17.64;63.10;100708.91;6254903;22;20129;-80
2022/10/21 08:14:41;;;;;;;7.30;2.58;;;;;;;17.64;63.48;100716.72;6307754;22;20321;-80
2022/10/21 08:17:07;;;;;;;8.52;2.90;;;;;;;17.66;63.05;100722.78;6307740;22;20054;-80
2022/10/21 08:19:32;;;;;;;7.13;3.08;;;;;;;17.65;62.56;100716.69;6254828;22;20038;-80
2022/10/21 08:21:58;;;;;;;5.43;2.70;;;;;;;17.66;63.23;100708.03;6280823;22;20113;-80
2022/10/21 08:24:24;;;;;;;4.75;2.58;;;;;;;17.65;62.90;100697.63;6280593;22;20008;-79
2022/10/21 08:26:50;;;;;;;9.43;2.65;;;;;;;17.64;63.09;100699.38;6254800;22;20007;-80
2022/10/21 08:29:16;;;;;;;4.22;2.60;;;;;;;17.64;63.24;100701.13;6307640;22;20056;-80
2022/10/21 08:31:41;;;;;;;5.78;2.78;;;;;;;17.62;63.17;100695.06;6280354;22;20039;-80
2022/10/21 08:34:07;;;;;;;5.75;2.75;;;;;;;17.64;63.24;100699.38;6279901;22;20015;-80
2022/10/21 08:36:32;;;;;;;5.65;2.70;;;;;;;17.64;63.18;100698.50;6254699;22;20019;-80
2022/10/21 08:38:58;;;;;;;5.10;2.42;;;;;;;17.63;62.86;100705.44;6280321;22;20304;-80
2022/10/21 08:41:35;;;;;;;4.90;2.60;;;;;;;17.65;63.10;100700.22;6254719;22;20037;-79
2022/10/21 08:44:06;;;;;;;5.50;2.40;;;;;;;17.63;63.27;100699.38;6280297;22;19999;-80
2022/10/21 08:47:12;;;;;;;5.28;2.70;;;;;;;17.64;63.32;100703.72;6280119;22;20014;-79
2022/10/21 08:49:50;;;;;;;4.25;2.22;;;;;;;17.66;63.13;100707.16;6280617;22;20007;-80
2022/10/21 08:52:22;;;;;;;6.25;2.40;;;;;;;17.66;62.90;100704.56;6309716;22;20007;-80
2022/10/21 08:55:34;;;;;;;6.18;2.40;;;;;;;17.67;63.01;100707.13;6309449;22;20003;-80
2022/10/21 08:58:00;;;;;;;4.50;2.28;;;;;;;17.67;62.97;100709.72;6282100;22;20011;-80
2022/10/21 09:00:38;;;;;;;3.95;2.45;;;;;;;17.68;62.72;100710.56;6282304;22;20023;-80
2022/10/21 09:03:11;;;;;;;5.05;2.53;;;;;;;17.70;62.91;100714.03;6281746;22;20054;-80
2022/10/21 09:05:37;;;;;;;5.40;2.40;;;;;;;17.73;62.76;100692.34;6281921;22;20014;-81
2022/10/21 09:08:34;;;;;;;3.95;2.45;;;;;;;17.74;62.57;100688.84;6281731;22;20007;-80
2022/10/21 09:11:11;;;;;;;3.72;2.20;;;;;;;17.76;62.49;100693.13;6309504;22;20026;-80
2022/10/21 09:14:10;;;;;;;3.38;2.17;;;;;;;17.78;62.66;100688.78;6309163;22;19995;-80
2022/10/21 09:16:52;;;;;;;5.90;2.20;;;;;;;17.80;62.44;100700.03;6309140;22;19999;-79
2022/10/21 09:19:36;;;;;;;4.45;2.25;;;;;;;17.79;62.40;100700.94;6281655;22;20003;-80
2022/10/21 09:22:08;;;;;;;3.35;2.10;;;;;;;17.78;62.61;100707.00;6309035;22;20025;-80
2022/10/21 09:24:47;;;;;;;3.75;2.20;;;;;;;17.78;62.55;100709.59;6281642;22;20465;-80
2022/10/21 09:27:12;;;;;;;4.72;2.40;;;;;;;17.78;62.37;100707.00;6281922;22;20335;-80
2022/10/21 09:29:49;;;;;;;5.70;2.30;;;;;;;17.78;62.61;100696.59;6281806;22;20003;-80
2022/10/21 09:32:18;;;;;;;6.32;2.38;;;;;;;17.78;62.41;100685.31;6281568;22;20004;-80
2022/10/21 09:34:49;;;;;;;3.88;2.10;;;;;;;17.78;62.60;100690.53;6308726;22;20026;-79
2022/10/21 09:37:23;;;;;;;3.47;2.08;;;;;;;17.77;62.52;100694.88;6281734;22;20390;-80
2022/10/21 09:40:14;;;;;;;3.53;2.15;;;;;;;17.79;62.58;100706.13;6281804;22;20003;-79
2022/10/21 09:42:40;;;;;;;4.85;2.47;;;;;;;17.80;62.29;100709.59;6268419;22;20435;-81
2022/10/21 09:45:29;;;;;;;6.45;2.50;;;;;;;17.83;62.50;100706.97;6310060;22;20029;-81
2022/10/21 09:47:58;;;;;;;3.75;2.05;;;;;;;17.84;62.27;100712.16;6266633;22;20004;-80
2022/10/21 09:50:25;;;;;;;4.07;2.00;;;;;;;17.84;62.13;100713.91;6282299;22;20003;-80
2022/10/21 09:53:28;;;;;;;3.97;2.20;;;;;;;17.84;62.41;100711.31;6256505;22;20029;-80
2022/10/21 09:56:01;;;;;;;3.70;1.98;;;;;;;17.84;62.37;100717.38;6281481;22;20038;-80
2022/10/21 09:58:36;;;;;;;3.08;2.05;;;;;;;17.85;62.23;100710.41;6281512;22;20007;-80
2022/10/21 10:01:02;;;;;;;3.55;1.85;;;;;;;17.85;62.14;100708.66;6280955;22;20011;-80
2022/10/21 10:03:35;;;;;;;4.45;2.28;;;;;;;17.88;62.07;100718.19;6308962;22;20003;-80
2022/10/21 10:06:02;;;;;;;4.03;1.80;;;;;;;17.89;62.37;100709.50;6281304;22;20011;-80
2022/10/21 10:08:47;;;;;;;3.63;2.10;;;;;;;17.89;62.18;100712.09;6281580;22;20303;-82
2022/10/21 10:11:16;;;;;;;3.22;1.83;;;;;;;17.91;62.12;100706.88;6281578;22;20011;-80
2022/10/21 10:13:45;;;;;;;2.58;1.90;;;;;;;17.93;61.90;100700.78;6308840;22;20015;-77
2022/10/21 10:16:13;;;;;;;2.75;1.83;;;;;;;17.94;62.16;100701.63;6308529;22;20003;-79
2022/10/21 10:18:38;;;;;;;2.20;1.70;;;;;;;17.94;61.93;100697.28;6282301;22;20417;-82
2022/10/21 10:21:15;;;;;;;3.75;1.90;;;;;;;17.97;62.03;100701.59;6280974;22;20011;-84
2022/10/21 10:23:52;;;;;;;3.85;1.83;;;;;;;17.96;62.12;100705.06;6281064;22;20003;-81
2022/10/21 10:26:33;;;;;;;3.47;1.92;;;;;;;17.98;62.09;100711.97;6308408;22;20061;-85
2022/10/21 10:29:16;;;;;;;5.45;1.90;;;;;;;17.97;62.12;100722.44;6311034;22;20000;-83
2022/10/21 10:31:46;;;;;;;;;;;;;;;18.00;62.19;100718.03;6309605;22;20038;-84
2022/10/21 10:34:26;;;;;;;5.50;2.03;;;;;;;18.02;62.24;100718.88;6280322;22;19918;-81
2022/10/21 10:37:01;;;;;;;5.72;2.03;;;;;;;18.04;62.09;100722.31;6256238;22;20035;-81
2022/10/21 10:39:31;;;;;;;2.83;2.00;;;;;;;18.05;62.07;100717.97;6308335;22;20007;-81
2022/10/21 10:41:56;;;;;;;3.97;2.00;;;;;;;18.06;61.95;100714.50;6280798;22;20003;-80
2022/10/21 10:44:39;;;;;;;4.70;2.08;;;;;;;18.06;62.10;100719.69;6255272;22;20018;-81
2022/10/21 10:47:08;;;;;;;3.08;1.98;;;;;;;18.07;61.91;100729.22;6308237;22;20007;-81
2022/10/21 10:49:41;;;;;;;2.90;1.67;;;;;;;18.09;61.97;100719.66;6280840;22;20007;-80
2022/10/21 10:52:23;;;;;;;3.13;1.80;;;;;;;18.06;62.13;100712.75;6281128;22;20007;-80
2022/10/21 10:55:12;;;;;;;2.60;1.83;;;;;;;18.08;62.09;100713.59;6280863;22;20007;-80
2022/10/21 10:57:41;;;;;;;3.38;2.00;;;;;;;18.08;62.38;100712.72;6262691;22;20008;-81
2022/10/21 11:00:12;;;;;;;2.70;1.70;;;;;;;18.08;62.31;100712.72;6308066;22;19999;-80
2022/10/21 11:02:59;;;;;;;2.58;1.88;;;;;;;18.05;62.42;100713.63;6307755;22;20034;-81
2022/10/21 11:05:35;;;;;;;3.97;1.55;;;;;;;18.05;62.34;100710.16;6308250;22;20015;-81
2022/10/21 11:08:20;;;;;;;3.50;1.90;;;;;;;18.05;62.50;100716.25;6280632;22;20003;-83
2022/10/21 11:10:52;;;;;;;3.83;1.95;;;;;;;18.05;62.61;100712.75;6279771;22;20483;-80
2022/10/21 11:13:20;;;;;;;4.60;1.70;;;;;;;18.08;62.43;100707.53;6280653;22;20074;-81
2022/10/21 11:16:04;;;;;;;2.63;1.70;;;;;;;18.12;62.19;100696.19;6281424;22;19999;-80
2022/10/21 11:18:33;;;;;;;3.05;1.65;;;;;;;18.12;62.19;100698.78;6308182;22;20491;-81
2022/10/21 11:21:34;;;;;;;3.33;1.70;;;;;;;18.11;62.28;100698.81;6280556;22;20018;-81
2022/10/21 11:24:17;;;;;;;3.10;1.63;;;;;;;18.06;62.43;100691.91;6280466;22;19999;-82
2022/10/21 11:27:02;;;;;;;2.30;1.60;;;;;;;18.06;62.49;100691.06;6280600;22;20401;-82
2022/10/21 11:29:48;;;;;;;3.53;1.75;;;;;;;18.07;62.68;100680.63;6280396;22;20010;-82
2022/10/21 11:32:48;;;;;;;3.40;1.75;;;;;;;18.06;62.64;100684.09;6280316;22;20006;-81
2022/10/21 11:35:47;;;;;;;3.97;1.80;;;;;;;18.06;62.68;100696.25;6307838;22;20014;-81
2022/10/21 11:38:48;;;;;;;5.93;1.42;;;;;;;18.09;62.79;100710.13;6308048;22;20039;-81
2022/10/21 11:41:39;;;;;;;2.40;1.48;;;;;;;18.12;62.67;100695.31;6307915;22;20007;-83
2022/10/21 11:44:28;;;;;;;3.22;1.75;;;;;;;18.17;62.47;100702.19;6307732;22;19996;-83
2022/10/21 11:47:10;;;;;;;5.88;1.60;;;;;;;18.18;62.36;100703.03;6280450;22;20447;-81
2022/10/21 11:49:44;;;;;;;4.43;1.70;;;;;;;18.19;62.35;100696.97;6280553;22;20057;-82
2022/10/21 11:52:18;;;;;;;2.70;1.77;;;;;;;18.20;62.47;100685.63;6280321;22;20388;-81
2022/10/21 11:54:50;;;;;;;4.28;1.90;;;;;;;18.23;62.41;100689.06;6280261;22;20460;-80
2022/10/21 11:57:21;;;;;;;2.42;1.60;;;;;;;18.25;62.42;100682.09;6280204;22;20010;-82
2022/10/21 11:59:50;;;;;;;2.75;1.50;;;;;;;18.25;62.55;100689.91;6280552;22;20007;-83
2022/10/21 12:02:23;;;;;;;1.83;1.40;;;;;;;18.23;62.45;100680.41;6280026;22;20013;-82
2022/10/21 12:04:58;;;;;;;3.65;1.60;;;;;;;18.19;62.67;100682.19;6307702;22;20316;-81
2022/10/21 12:07:48;;;;;;;2.42;1.50;;;;;;;18.16;62.80;100677.03;6280267;22;20014;-81
2022/10/21 12:10:31;;;;;;;1.92;1.40;;;;;;;18.17;62.78;100690.91;6280368;22;20015;-81
2022/10/21 12:13:05;;;;;;;;;;;;;;;18.16;62.74;100689.16;6280869;22;20090;-83
2022/10/21 12:15:41;;;;;;;2.05;1.50;;;;;;;18.16;62.80;100692.66;6280264;22;19902;-81
2022/10/21 12:18:13;;;;;;;2.35;1.40;;;;;;;18.13;62.92;100692.69;6307553;22;20007;-81
2022/10/21 12:20:40;;;;;;;2.55;1.70;;;;;;;18.09;62.80;100699.69;6280251;22;20053;-81
2022/10/21 12:23:09;;;;;;;3.22;1.77;;;;;;;18.11;63.13;100701.41;6306020;22;20065;-81
2022/10/21 12:26:03;;;;;;;3.00;1.58;;;;;;;18.11;62.76;100699.66;6256162;22;20065;-82
2022/10/21 12:28:36;;;;;;;1.90;1.40;;;;;;;18.08;62.62;100692.75;6282282;22;20030;-82
2022/10/21 12:31:07;;;;;;;5.72;1.60;;;;;;;18.06;63.13;100693.66;6309640;22;20408;-81
2022/10/21 12:33:39;;;;;;;1.92;1.50;;;;;;;18.05;63.02;100686.72;6282024;22;20050;-81
2022/10/21 12:36:23;;;;;;;2.10;1.42;;;;;;;18.07;62.95;100690.16;6282086;22;20037;-82
2022/10/21 12:38:49;;;;;;;2.25;1.40;;;;;;;18.08;62.95;100694.50;6309413;22;20007;-81
2022/10/21 12:41:33;;;;;;;2.70;1.45;;;;;;;18.07;62.95;100693.66;6282165;22;20007;-82
2022/10/21 12:44:06;;;;;;;1.85;1.20;;;;;;;18.08;62.94;100694.50;6282145;22;20435;-81
2022/10/21 12:46:37;;;;;;;1.42;1.20;;;;;;;18.08;62.87;100697.97;6282817;22;20300;-82
2022/10/21 12:49:17;;;;;;;2.22;1.45;;;;;;;18.08;63.06;100697.97;6282086;22;20007;-81
2022/10/21 12:51:49;;;;;;;1.95;1.30;;;;;;;18.08;62.74;100699.72;6309497;22;20064;-83
2022/10/21 12:54:18;;;;;;;2.13;1.50;;;;;;;18.08;62.75;100695.34;6309929;22;20030;-81
2022/10/21 12:57:03;;;;;;;3.13;1.58;;;;;;;18.07;63.10;100695.38;6281980;22;20011;-83
2022/10/21 12:59:41;;;;;;;2.17;1.55;;;;;;;18.08;62.99;100697.09;6282073;22;20007;-80
2022/10/21 13:02:10;;;;;;;2.05;1.40;;;;;;;18.07;63.03;100716.19;6309220;22;20419;-83
2022/10/21 13:04:35;;;;;;;1.50;1.15;;;;;;;18.06;63.19;100699.72;6282118;22;20090;-83
2022/10/21 13:07:03;;;;;;;2.78;1.45;;;;;;;18.08;62.95;100710.97;6309701;22;20419;-84
2022/10/21 13:09:39;;;;;;;2.95;1.38;;;;;;;18.10;63.13;100705.75;6309665;22;20419;-82
2022/10/21 13:12:07;;;;;;;2.63;1.42;;;;;;;18.14;63.04;100701.34;6309641;22;20003;-82
2022/10/21 13:14:57;;;;;;;3.05;1.30;;;;;;;18.19;62.84;100707.38;6309876;22;20035;-81
2022/10/21 13:17:27;;;;;;;1.75;1.10;;;;;;;18.26;62.80;100703.78;6309486;22;20006;-81
2022/10/21 13:20:14;;;;;;;2.83;1.30;;;;;;;18.31;62.58;100704.56;6281966;22;20007;-81
2022/10/21 13:22:56;;;;;;;2.35;1.23;;;;;;;18.34;62.21;100704.53;6281992;22;20018;-81
2022/10/21 13:25:29;;;;;;;2.15;1.20;;;;;;;18.34;62.54;100696.72;6282115;22;20014;-81
2022/10/21 13:27:54;;;;;;;4.07;1.50;;;;;;;18.29;62.57;100694.19;6313135;22;20026;-82
2022/10/21 13:30:35;;;;;;;2.97;1.20;;;;;;;18.26;62.97;100702.03;6318993;22;20392;-82
2022/10/21 13:33:19;;;;;;;2.33;1.30;;;;;;;18.28;62.76;100700.28;6289573;22;20007;-81
2022/10/21 13:35:54;;;;;;;1.67;1.17;;;;;;;18.27;62.93;100697.72;6289233;22;20039;-84
2022/10/21 13:38:28;;;;;;;3.60;1.60;;;;;;;18.26;62.75;100696.84;6298187;22;20064;-83
2022/10/21 13:40:56;;;;;;;1.85;1.00;;;;;;;18.24;62.98;100703.81;6323495;22;20010;-80
2022/10/21 13:43:27;;;;;;;2.00;1.33;;;;;;;18.22;62.83;100702.97;6325819;22;19999;-82
2022/10/21 13:46:04;;;;;;;4.93;1.30;;;;;;;18.20;62.90;100696.91;6297116;22;20007;-84
2022/10/21 13:48:30;;;;;;;2.53;1.10;;;;;;;18.18;63.18;100701.31;6295472;22;20034;-84
2022/10/21 13:50:55;;;;;;;2.67;1.40;;;;;;;18.17;63.19;100704.78;6326257;22;19999;-81